Snow/Ice From: 15-12-2018 09:00 Until: 16-12-2018 09:00 warning for: Snow/Ice Level: Yellow info button
 Banner
iom-flag.gif  iom-flag.gif


Ballaugh webcam more information Ballaugh webcam


Thunder radar more information blitzortung!


warning for Snow/Ice more information rain snow radar


Visit our other weather sites:

Template documentation
and downloads

And another site



Nearby METAR Reports

   
EGNS - Isle Of Man/Rona, United Kingdom
Distance from station: SSW 16 mi
Updated: 16-12-2018 17:20
Rain, Overcast  
Rain, Overcast  
   Wind: SSW 12.7 mph
Wind: SSW 12.7 mph
Temperature: 7°C
Wind Chill: 3°C
Dew Point: 5°C
Humidity: 87%
Barometer: 1001 hPa
Clouds: Overcast
Visibility: 5 mi
Cloud details: Few Clouds 1200 ft,
Overcast 2700 ft
EGNS 161720Z 20011KT 8000 RA FEW012 OVC027 07/05 Q1001 BECMG 9999 -RA
EGAC - Belfast Harbour, United Kingdom
Distance from station: WNW 57 mi
Updated: 16-12-2018 17:20
Mostly Cloudy  
Mostly Cloudy  
   Wind: SW 5.8 mph
Wind: SW 5.8 mph
Temperature: 6°C
Wind Chill: 4°C
Dew Point: 4°C
Humidity: 87%
Barometer: 1000 hPa
Clouds: Mostly Cloudy
Visibility: More than 6 mi
Cloud details: Mostly Cloudy 2800 ft
EGAC 161720Z AUTO 23005KT 9999 BKN028/// 06/04 Q1000
EGAA - Belfast/Aldergro, United Kingdom
Distance from station: WNW 71 mi
Updated: 16-12-2018 17:20
Few Clouds  
Few Clouds  
   Wind: South 5.8 mph
Wind: South 5.8 mph
Temperature: 5°C
Wind Chill: 3°C
Dew Point: 3°C
Humidity: 87%
Barometer: 1000 hPa
Clouds: Few Clouds
Visibility: More than 6 mi
Cloud details: Few Clouds 4000 ft
EGAA 161720Z 17005KT 9999 FEW040 05/03 Q1000
EGNH - Blackpool Airpor, United Kingdom
Distance from station: ESE 73 mi
Updated: 16-12-2018 16:50
Clear  
Clear  
   Wind: ESE 12.7 mph
Wind: ESE 12.7 mph
Temperature: 6°C
Wind Chill: 2°C
Dew Point: 4°C
Humidity: 87%
Barometer: 1002 hPa
Visibility: More than 6 mi
Cloud details: Clear ft
EGNH 161650Z 12011KT CAVOK 06/04 Q1002
EGOV - Valley Raf, United Kingdom
Distance from station: S 73 mi
Updated: 16-12-2018 16:50
Rain, Mostly Cloudy  
Rain, Mostly Cloudy  
   Wind: SSW 15 mph
Wind: SSW 15 mph
Temperature: 7°C
Wind Chill: 3°C
Dew Point: 6°C
Humidity: 93%
Barometer: 1001 hPa
Clouds: Mostly Cloudy
Visibility: 4 mi
Cloud details: Mostly Cloudy 1000 ft,
Mostly Cloudy 1900 ft
EGOV 161650Z AUTO 21013KT 7000 RA BKN010/// BKN019/// 07/06 Q1001
EGNC - Carlisle, United Kingdom
Distance from station: ENE 81 mi
Updated: 12-10-2018 14:50
NOT Current
Light Showers, Rain, Overcast  
Light Showers, Rain, Overcast  
   Wind: South 20.7 mph<br />Gust to 20.7 mph
Wind: South 20.7 mph
Gust to 20.7 mph
Temperature: 16°C
Dew Point: 14°C
Humidity: 88%
Barometer: 992 hPa
Clouds: Overcast
Visibility: 3 mi
Cloud details: Partly Cloudy 1000 ft,
Overcast 1600 ft
EGNC 121350Z 18018G33KT 140V220 5000 -SHRA SCT010 OVC016 16/14 Q0992
EGPK - Prestwick(Civ/Na, United Kingdom
Distance from station: N 82 mi
Updated: 16-12-2018 17:20
Partly Cloudy  
Partly Cloudy  
   Wind: ESE 5.8 mph
Wind: ESE 5.8 mph
Temperature: 6°C
Wind Chill: 4°C
Dew Point: 4°C
Humidity: 87%
Barometer: 1001 hPa
Clouds: Partly Cloudy
Visibility: More than 6 mi
Cloud details: Partly Cloudy 3600 ft
EGPK 161720Z 11005KT 9999 SCT036 06/04 Q1001
EIDW - Dublin Airport, Ireland
Distance from station: SW 93 mi
Updated: 16-12-2018 17:00
Partly Cloudy  
Partly Cloudy  
   Wind: WSW 5.8 mph
Wind: WSW 5.8 mph
Temperature: 5°C
Wind Chill: 3°C
Dew Point: 3°C
Humidity: 87%
Barometer: 1000 hPa
Clouds: Partly Cloudy
Visibility: More than 6 mi
Cloud details: Few Clouds 1800 ft,
Partly Cloudy 20000 ft
EIDW 161700Z 24005KT 180V280 9999 FEW018 SCT200 05/03 Q1000 NOSIG
EGGP - Liverpool Airpor, United Kingdom
Distance from station: SE 98 mi
Updated: 16-12-2018 17:20
Light Rain  
Light Rain  
   Wind: SE 4.6 mph
Wind: SE 4.6 mph
Visibility: More than 6 mi
Cloud details: Mostly Cloudy 1500 ft
EGGP 161720Z 13004KT 100V160 9999 -RA BKN015
EGPF - Glasgow Airport, United Kingdom
Distance from station: N 107 mi
Updated: 16-12-2018 17:20
Mostly Cloudy  
Mostly Cloudy  
   Wind: varies 3.5 mph
Wind: varies 3.5 mph
Temperature: 4°C
Wind Chill: 3°C
Dew Point: 3°C
Humidity: 93%
Barometer: 1001 hPa
Clouds: Mostly Cloudy
Visibility: More than 6 mi
Cloud details: Mostly Cloudy 3800 ft
EGPF 161720Z AUTO VRB03KT 9999 BKN038 04/03 Q1001
EGCC - Manchester Intl, United Kingdom
Distance from station: SE 114 mi
Updated: 16-12-2018 16:50
Clear  
Clear  
   Wind: varies 3.5 mph
Wind: varies 3.5 mph
Temperature: 7°C
Wind Chill: 6°C
Dew Point: 3°C
Humidity: 76%
Barometer: 1002 hPa
Clouds: Clear
Visibility: More than 6 mi
Cloud details: Clear ft
EGCC 161650Z AUTO VRB03KT 9999 NCD 07/03 Q1002 BECMG 17010KT TEMPO RA
EGNM - Leeds And Bradfo, United Kingdom
Distance from station: ESE 122 mi
Updated: 16-12-2018 17:20
Clear  
Clear  
   Wind: SE 5.8 mph
Wind: SE 5.8 mph
Temperature: 4°C
Wind Chill: 2°C
Dew Point: 3°C
Humidity: 93%
Barometer: 1003 hPa
Visibility: More than 6 mi
Cloud details: Clear ft
EGNM 161720Z 14005KT CAVOK 04/03 Q1003

Script developed by  Saratoga-weather.org Adapted for the template by  Weerstation Leuven

You find our weather info also at:

UK Metoffice

WeatherCloud

WeatherlinkIP

Equipment we use:

Weather-station
Davis VP2

Weather-program
Weather Display

Weather-server
My Computer

Provider
Fasthosts

Davis VP2

Weather Display

My Computer

Fasthosts

 Banner1
iom-flag.gif  iom-flag.gif
Flag Counter 

Hits since site created in 2003